»·PEaware :: N72C KRYN-KSAD

N72C :: KRYN-KSAD

FLIGHT INFORMATION

Flight Status: Arrived
Operator: Privately registered:
United States
More flights under this callsign
Pilot: Charles C. (26995)
Aircraft: SOCATA TBM-900
(TBM9)
More flights by this aircraft type
Origin: KRYN Ryan
United States
Destination: KSAD Safford Regl
United States
More flights between these airports :: More routes between these airports
Route:
File this flight plan on PilotEdge
Remarks:
Altitude:
(Current/Filed)
13,500ft
Speed:
(Current/Filed)
280kts
Departed: 30-Sep-20 11:00 AM
Arrived: 30-Sep-20 11:33 AM
Distance/Time
Traveled:
89nm/0:33
Distance/Time
To Go:
Arrived

Flight Plot

Page will automatically refresh every two minutes.

Flight plan parsing failed; only flown route is shown


Map Options




Map Legend


Flown Route
Filed Route
Departure Airport
Arrival Airport
Navaid (VOR, NDB)
Fix

Horizontal Profiles

Position Reports

Time Latitude Longitude Heading Altitude Ground
Speed
30-Sep-20 10:42 32.138128 -111.169138 8 2409ft 0kts
30-Sep-20 10:43 32.138128 -111.169138 8 2409ft 0kts
30-Sep-20 10:44 32.138128 -111.169138 8 2409ft 0kts
30-Sep-20 10:45 32.138128 -111.169138 8 2409ft 0kts
30-Sep-20 10:46 32.138128 -111.169138 8 2409ft 0kts
30-Sep-20 10:47 32.138128 -111.169138 8 2409ft 0kts
30-Sep-20 10:48 32.138128 -111.169138 8 2409ft 0kts
30-Sep-20 10:49 32.138128 -111.169138 8 2409ft 0kts
30-Sep-20 10:50 32.138128 -111.169138 8 2409ft 0kts
30-Sep-20 10:51 32.138128 -111.169138 8 2409ft 0kts
30-Sep-20 10:52 32.138128 -111.169138 8 2409ft 0kts
30-Sep-20 10:53 32.138128 -111.169138 8 2409ft 0kts
30-Sep-20 10:54 32.138128 -111.169138 8 2409ft 0kts
30-Sep-20 10:55 32.138128 -111.169138 8 2409ft 0kts
30-Sep-20 10:56 32.138901 -111.169223 339 2408ft 6kts
30-Sep-20 10:57 32.143706 -111.171284 343 2397ft 10kts
30-Sep-20 10:58 32.144464 -111.171900 247 2395ft 0kts
30-Sep-20 10:59 32.142518 -111.178367 248 2393ft 107kts
30-Sep-20 11:01 32.128812 -111.219486 250 3971ft 157kts
30-Sep-20 11:02 32.114910 -111.272541 256 5785ft 179kts
30-Sep-20 11:03 32.142655 -111.286046 70 7502ft 170kts
30-Sep-20 11:04 32.154267 -111.233418 58 9239ft 168kts
30-Sep-20 11:05 32.177052 -111.183710 59 11030ft 178kts
30-Sep-20 11:06 32.207854 -111.136243 45 12461ft 204kts
30-Sep-20 11:07 32.247929 -111.084117 45 13383ft 221kts
30-Sep-20 11:08 32.293816 -111.024522 46 13409ft 260kts
30-Sep-20 11:09 32.343821 -110.959494 46 13406ft 271kts
30-Sep-20 11:10 32.395050 -110.892782 47 13414ft 274kts
30-Sep-20 11:11 32.446213 -110.826026 47 13417ft 273kts
30-Sep-20 11:12 32.497386 -110.759147 47 13416ft 273kts
30-Sep-20 11:13 32.548304 -110.692484 47 13413ft 273kts
30-Sep-20 11:14 32.596079 -110.622421 57 13419ft 273kts
30-Sep-20 11:15 32.635363 -110.545099 58 13417ft 273kts
30-Sep-20 11:16 32.674040 -110.468301 58 12916ft 271kts
30-Sep-20 11:17 32.712646 -110.391476 57 12229ft 269kts
30-Sep-20 11:18 32.750706 -110.315583 58 11498ft 265kts
30-Sep-20 11:19 32.788122 -110.240821 58 10796ft 261kts
30-Sep-20 11:20 32.825132 -110.166707 58 10145ft 258kts
30-Sep-20 11:20 32.855730 -110.105322 59 9503ft 257kts
30-Sep-20 11:21 32.892185 -110.032055 59 8830ft 253kts
30-Sep-20 11:23 32.934161 -109.947517 59 7561ft 250kts
30-Sep-20 11:24 32.965981 -109.883350 60 6860ft 178kts
30-Sep-20 11:24 32.984018 -109.846832 60 6342ft 152kts
30-Sep-20 11:25 32.993646 -109.802241 126 5761ft 145kts
30-Sep-20 11:26 32.965975 -109.767956 134 5098ft 130kts
30-Sep-20 11:27 32.941437 -109.739141 134 5113ft 117kts
30-Sep-20 11:28 32.918825 -109.712635 134 4873ft 105kts
30-Sep-20 11:29 32.899155 -109.689548 135 4265ft 92kts
30-Sep-20 11:30 32.881320 -109.668640 135 3772ft 88kts
30-Sep-20 11:31 32.863993 -109.648269 135 3359ft 88kts
30-Sep-20 11:32 32.853306 -109.637075 257 3168ft 10kts
30-Sep-20 11:33 32.852460 -109.638377 279 3165ft 0kts
30-Sep-20 11:34 32.852460 -109.638377 279 3165ft 0kts
30-Sep-20 11:35 32.852460 -109.638377 279 3165ft 0kts
30-Sep-20 11:36 32.852460 -109.638377 279 3165ft 0kts
30-Sep-20 11:37 32.852460 -109.638377 279 3165ft 0kts
30-Sep-20 11:38 32.852460 -109.638377 279 3165ft 0kts
30-Sep-20 11:39 32.852460 -109.638377 279 3165ft 0kts
30-Sep-20 11:40 32.852460 -109.638377 279 3165ft 0kts
30-Sep-20 11:41 32.852460 -109.638377 279 3165ft 0kts
30-Sep-20 11:42 32.852460 -109.638377 279 3165ft 0kts
30-Sep-20 11:43 32.852460 -109.638377 279 3165ft 0kts
30-Sep-20 11:44 32.852460 -109.638377 279 3165ft 0kts
30-Sep-20 11:45 32.852460 -109.638377 279 3165ft 0kts
30-Sep-20 11:46 32.852460 -109.638377 279 3165ft 0kts

Navigation Log

Ident Type
Flight plan parsing failed, navigation log unavailable